Sunday, July 22, 2018, 2:12 PM GMT
Back to Local

CWNQ, Nicolet Automatic Weather Reporting System

Location: , , Canada Lat: 46.217
Local Time: 2:12 PM GMT (14:12 GMT) Lon: -72.65
Time Zone: GMT Elev: 32 ft

Show me the last for .
Show Coded

Time T Td Feel RH Dir Speed Gust Alt SLP Vis Weather Sky Remarks
2018-07-22 14:00 74 56 77 55 100° 6 - - 30.09 0 None
2018-07-22 13:00 71 57 76 60 50° 5 - - 30.09 0 None
2018-07-22 12:00 67 56 - 69 60° 6 - - 30.10 0 None
2018-07-22 11:00 64 56 - 77 50° 5 - - 30.08 0 None
2018-07-22 10:00 60 55 - 83 50° 3 - - 30.09 0 None
2018-07-22 09:00 60 56 - 86 40° 3 - - 30.08 0 None
2018-07-22 08:00 64 56 - 75 80° 6 - - 30.08 0 None
2018-07-22 07:00 66 56 - 69 130° 3 - - 30.07 0 None
2018-07-22 06:00 68 55 - 63 120° 5 - - 30.06 0 None
2018-07-22 05:00 67 56 - 66 130° 5 - - 30.06 0 None
2018-07-22 04:00 71 56 76 58 110° 5 - - 30.06 0 None
2018-07-22 03:00 74 58 77 56 130° 3 - - 30.06 0 None
2018-07-22 02:00 69 67 - 92 70° 1 - - 30.04 0 None
2018-07-22 01:00 74 70 77 87 60° 2 - - 30.03 0 None
2018-07-22 00:00 79 69 83 69 60° 2 - - 30.02 0 None
2018-07-21 23:00 83 67 86 57 40° 5 - - 30.03 0 None
2018-07-21 22:00 87 59 - 38 120° 5 - - 30.03 0 None
2018-07-21 21:00 86 60 87 41 90° 7 - - 30.03 0 None
2018-07-21 20:00 87 56 - 35 140° 7 - - 30.04 0 None
2018-07-21 19:00 86 63 88 46 260° 3 - - 30.06 0 None
2018-07-21 18:00 82 71 87 67 220° 5 - - 30.07 0 None
2018-07-21 17:00 81 69 84 67 290° 6 - - 30.09 0 None
2018-07-21 16:00 81 67 84 63 230° 3 - - 30.10 0 None
2018-07-21 15:00 80 65 83 61 170° 2 - - 30.11 0 None

Support USWX by starting your Amazon purchase here.